sensor_id;sensor_type;location;lat;lon;timestamp;temperature;humidity
42617;DHT22;28250;52.320;0.360;2024-03-08T00:00:09;5.50;99.90
42617;DHT22;28250;52.320;0.360;2024-03-08T00:02:39;5.50;99.90
42617;DHT22;28250;52.320;0.360;2024-03-08T00:05:06;5.50;99.90
42617;DHT22;28250;52.320;0.360;2024-03-08T00:07:36;5.60;99.90
42617;DHT22;28250;52.320;0.360;2024-03-08T00:10:04;5.70;99.90
42617;DHT22;28250;52.320;0.360;2024-03-08T00:12:31;5.80;99.90
42617;DHT22;28250;52.320;0.360;2024-03-08T00:14:57;5.70;99.90
42617;DHT22;28250;52.320;0.360;2024-03-08T00:17:23;5.80;99.90
42617;DHT22;28250;52.320;0.360;2024-03-08T00:19:50;5.90;99.90
42617;DHT22;28250;52.320;0.360;2024-03-08T00:22:17;5.80;99.90
42617;DHT22;28250;52.320;0.360;2024-03-08T00:24:43;5.80;99.90
42617;DHT22;28250;52.320;0.360;2024-03-08T00:27:09;5.90;99.90
42617;DHT22;28250;52.320;0.360;2024-03-08T00:29:37;5.90;99.90
42617;DHT22;28250;52.320;0.360;2024-03-08T00:32:04;5.80;99.90
42617;DHT22;28250;52.320;0.360;2024-03-08T00:34:31;5.80;99.90
42617;DHT22;28250;52.320;0.360;2024-03-08T00:36:57;5.70;99.90
42617;DHT22;28250;52.320;0.360;2024-03-08T00:39:24;5.50;99.90
42617;DHT22;28250;52.320;0.360;2024-03-08T00:41:51;5.50;99.90
42617;DHT22;28250;52.320;0.360;2024-03-08T00:44:17;5.40;99.90
42617;DHT22;28250;52.320;0.360;2024-03-08T00:46:44;5.50;99.90
42617;DHT22;28250;52.320;0.360;2024-03-08T00:49:10;5.40;99.90
42617;DHT22;28250;52.320;0.360;2024-03-08T00:51:37;5.30;99.90
42617;DHT22;28250;52.320;0.360;2024-03-08T00:54:03;5.20;99.90
42617;DHT22;28250;52.320;0.360;2024-03-08T00:56:30;5.20;99.90
42617;DHT22;28250;52.320;0.360;2024-03-08T00:58:56;5.30;99.90
42617;DHT22;28250;52.320;0.360;2024-03-08T01:01:22;5.20;99.90
42617;DHT22;28250;52.320;0.360;2024-03-08T01:03:50;5.20;99.90
42617;DHT22;28250;52.320;0.360;2024-03-08T01:06:16;5.20;99.90
42617;DHT22;28250;52.320;0.360;2024-03-08T01:08:42;5.20;99.90
42617;DHT22;28250;52.320;0.360;2024-03-08T01:11:09;5.40;99.90
42617;DHT22;28250;52.320;0.360;2024-03-08T01:13:35;5.50;99.90
42617;DHT22;28250;52.320;0.360;2024-03-08T01:16:02;5.30;99.90
42617;DHT22;28250;52.320;0.360;2024-03-08T01:18:29;5.30;99.90
42617;DHT22;28250;52.320;0.360;2024-03-08T01:20:55;5.40;99.90
42617;DHT22;28250;52.320;0.360;2024-03-08T01:23:23;5.40;99.90
42617;DHT22;28250;52.320;0.360;2024-03-08T01:25:50;5.40;99.90
42617;DHT22;28250;52.320;0.360;2024-03-08T01:28:26;5.50;99.90
42617;DHT22;28250;52.320;0.360;2024-03-08T01:30:52;5.40;99.90
42617;DHT22;28250;52.320;0.360;2024-03-08T01:33:25;5.40;99.90
42617;DHT22;28250;52.320;0.360;2024-03-08T01:35:53;5.40;99.90
42617;DHT22;28250;52.320;0.360;2024-03-08T01:38:20;5.40;99.90
42617;DHT22;28250;52.320;0.360;2024-03-08T01:40:47;5.40;99.90
42617;DHT22;28250;52.320;0.360;2024-03-08T01:43:19;5.40;99.90
42617;DHT22;28250;52.320;0.360;2024-03-08T01:45:47;5.50;99.90
42617;DHT22;28250;52.320;0.360;2024-03-08T01:48:15;5.40;99.90
42617;DHT22;28250;52.320;0.360;2024-03-08T01:50:43;5.40;99.90
42617;DHT22;28250;52.320;0.360;2024-03-08T01:53:10;5.40;99.90
42617;DHT22;28250;52.320;0.360;2024-03-08T01:55:38;5.40;99.90
42617;DHT22;28250;52.320;0.360;2024-03-08T01:58:05;5.40;99.90
42617;DHT22;28250;52.320;0.360;2024-03-08T02:00:34;5.40;99.90
42617;DHT22;28250;52.320;0.360;2024-03-08T02:03:01;5.30;99.90
42617;DHT22;28250;52.320;0.360;2024-03-08T02:05:28;5.40;99.90
42617;DHT22;28250;52.320;0.360;2024-03-08T02:07:55;5.30;99.90
42617;DHT22;28250;52.320;0.360;2024-03-08T02:10:21;5.30;99.90
42617;DHT22;28250;52.320;0.360;2024-03-08T02:12:48;5.40;99.90
42617;DHT22;28250;52.320;0.360;2024-03-08T02:15:15;5.40;99.90
42617;DHT22;28250;52.320;0.360;2024-03-08T02:17:41;5.40;99.90
42617;DHT22;28250;52.320;0.360;2024-03-08T02:20:07;5.40;99.90
42617;DHT22;28250;52.320;0.360;2024-03-08T02:22:35;5.50;99.90
42617;DHT22;28250;52.320;0.360;2024-03-08T02:25:02;5.50;99.90
42617;DHT22;28250;52.320;0.360;2024-03-08T02:27:29;5.50;99.90
42617;DHT22;28250;52.320;0.360;2024-03-08T02:29:57;5.50;99.90
42617;DHT22;28250;52.320;0.360;2024-03-08T02:32:23;5.50;99.90
42617;DHT22;28250;52.320;0.360;2024-03-08T02:34:50;5.50;99.90
42617;DHT22;28250;52.320;0.360;2024-03-08T02:37:17;5.50;99.90
42617;DHT22;28250;52.320;0.360;2024-03-08T02:39:43;5.60;99.90
42617;DHT22;28250;52.320;0.360;2024-03-08T02:42:11;5.50;99.90
42617;DHT22;28250;52.320;0.360;2024-03-08T02:44:41;5.60;99.90
42617;DHT22;28250;52.320;0.360;2024-03-08T02:47:09;5.60;99.90
42617;DHT22;28250;52.320;0.360;2024-03-08T02:49:36;5.60;99.90
42617;DHT22;28250;52.320;0.360;2024-03-08T02:52:04;5.60;99.90
42617;DHT22;28250;52.320;0.360;2024-03-08T02:54:30;5.60;99.90
42617;DHT22;28250;52.320;0.360;2024-03-08T02:56:57;5.70;99.90
42617;DHT22;28250;52.320;0.360;2024-03-08T02:59:23;5.70;99.90
42617;DHT22;28250;52.320;0.360;2024-03-08T03:01:49;5.70;99.90
42617;DHT22;28250;52.320;0.360;2024-03-08T03:04:17;5.70;99.90
42617;DHT22;28250;52.320;0.360;2024-03-08T03:06:44;5.70;99.90
42617;DHT22;28250;52.320;0.360;2024-03-08T03:09:10;5.70;99.90
42617;DHT22;28250;52.320;0.360;2024-03-08T03:11:36;5.70;99.90
42617;DHT22;28250;52.320;0.360;2024-03-08T03:14:03;5.70;99.90
42617;DHT22;28250;52.320;0.360;2024-03-08T03:16:30;5.70;99.90
42617;DHT22;28250;52.320;0.360;2024-03-08T03:18:56;5.70;99.90
42617;DHT22;28250;52.320;0.360;2024-03-08T03:21:27;5.80;99.90
42617;DHT22;28250;52.320;0.360;2024-03-08T03:23:57;5.70;99.90
42617;DHT22;28250;52.320;0.360;2024-03-08T03:26:24;5.70;99.90
42617;DHT22;28250;52.320;0.360;2024-03-08T03:28:51;5.80;99.90
42617;DHT22;28250;52.320;0.360;2024-03-08T03:31:17;5.80;99.90
42617;DHT22;28250;52.320;0.360;2024-03-08T03:33:44;5.80;99.90
42617;DHT22;28250;52.320;0.360;2024-03-08T03:36:10;5.70;99.90
42617;DHT22;28250;52.320;0.360;2024-03-08T03:38:37;5.80;99.90
42617;DHT22;28250;52.320;0.360;2024-03-08T03:41:03;5.90;99.90
42617;DHT22;28250;52.320;0.360;2024-03-08T03:43:37;5.80;99.90
42617;DHT22;28250;52.320;0.360;2024-03-08T03:46:06;5.80;99.90
42617;DHT22;28250;52.320;0.360;2024-03-08T03:48:33;5.80;99.90
42617;DHT22;28250;52.320;0.360;2024-03-08T03:50:59;5.70;99.90
42617;DHT22;28250;52.320;0.360;2024-03-08T03:53:25;5.70;99.90
42617;DHT22;28250;52.320;0.360;2024-03-08T03:55:53;5.80;99.90
42617;DHT22;28250;52.320;0.360;2024-03-08T03:58:19;5.80;99.90
42617;DHT22;28250;52.320;0.360;2024-03-08T04:00:48;5.80;99.90
42617;DHT22;28250;52.320;0.360;2024-03-08T04:03:15;5.80;99.90
42617;DHT22;28250;52.320;0.360;2024-03-08T04:05:42;5.70;99.90
42617;DHT22;28250;52.320;0.360;2024-03-08T04:08:08;5.70;99.90
42617;DHT22;28250;52.320;0.360;2024-03-08T04:10:35;5.80;99.90
42617;DHT22;28250;52.320;0.360;2024-03-08T04:13:01;5.80;99.90
42617;DHT22;28250;52.320;0.360;2024-03-08T04:15:28;5.80;99.90
42617;DHT22;28250;52.320;0.360;2024-03-08T04:17:54;5.80;99.90
42617;DHT22;28250;52.320;0.360;2024-03-08T04:20:20;5.80;99.90
42617;DHT22;28250;52.320;0.360;2024-03-08T04:22:47;5.80;99.90
42617;DHT22;28250;52.320;0.360;2024-03-08T04:25:15;5.80;99.90
42617;DHT22;28250;52.320;0.360;2024-03-08T04:27:41;5.80;99.90
42617;DHT22;28250;52.320;0.360;2024-03-08T04:30:08;5.80;99.90
42617;DHT22;28250;52.320;0.360;2024-03-08T04:32:35;5.80;99.90
42617;DHT22;28250;52.320;0.360;2024-03-08T04:35:01;5.70;99.90
42617;DHT22;28250;52.320;0.360;2024-03-08T04:37:29;5.70;99.90
42617;DHT22;28250;52.320;0.360;2024-03-08T04:39:55;5.70;99.90
42617;DHT22;28250;52.320;0.360;2024-03-08T04:42:22;5.70;99.90
42617;DHT22;28250;52.320;0.360;2024-03-08T04:44:48;5.70;99.90
42617;DHT22;28250;52.320;0.360;2024-03-08T04:47:15;5.70;99.90
42617;DHT22;28250;52.320;0.360;2024-03-08T04:49:43;5.70;99.90
42617;DHT22;28250;52.320;0.360;2024-03-08T04:52:10;5.70;99.90
42617;DHT22;28250;52.320;0.360;2024-03-08T04:54:36;5.70;99.90
42617;DHT22;28250;52.320;0.360;2024-03-08T04:57:02;5.70;99.90
42617;DHT22;28250;52.320;0.360;2024-03-08T04:59:30;5.60;99.90
42617;DHT22;28250;52.320;0.360;2024-03-08T05:01:56;5.60;99.90
42617;DHT22;28250;52.320;0.360;2024-03-08T05:04:23;5.50;99.90
42617;DHT22;28250;52.320;0.360;2024-03-08T05:06:49;5.50;99.90
42617;DHT22;28250;52.320;0.360;2024-03-08T05:09:15;5.50;99.90
42617;DHT22;28250;52.320;0.360;2024-03-08T05:11:43;5.50;99.90
42617;DHT22;28250;52.320;0.360;2024-03-08T05:14:10;5.40;99.90
42617;DHT22;28250;52.320;0.360;2024-03-08T05:16:38;5.40;99.90
42617;DHT22;28250;52.320;0.360;2024-03-08T05:19:06;5.40;99.90
42617;DHT22;28250;52.320;0.360;2024-03-08T05:21:32;5.40;99.90
42617;DHT22;28250;52.320;0.360;2024-03-08T05:23:58;5.40;99.90
42617;DHT22;28250;52.320;0.360;2024-03-08T05:26:25;5.40;99.90
42617;DHT22;28250;52.320;0.360;2024-03-08T05:28:51;5.30;99.90
42617;DHT22;28250;52.320;0.360;2024-03-08T05:31:20;5.30;99.90
42617;DHT22;28250;52.320;0.360;2024-03-08T05:33:50;5.40;99.90
42617;DHT22;28250;52.320;0.360;2024-03-08T05:36:16;5.40;99.90
42617;DHT22;28250;52.320;0.360;2024-03-08T05:38:43;5.40;99.90
42617;DHT22;28250;52.320;0.360;2024-03-08T05:41:10;5.40;99.90
42617;DHT22;28250;52.320;0.360;2024-03-08T05:43:38;5.50;99.90
42617;DHT22;28250;52.320;0.360;2024-03-08T05:46:06;5.50;99.90
42617;DHT22;28250;52.320;0.360;2024-03-08T05:48:32;5.50;99.90
42617;DHT22;28250;52.320;0.360;2024-03-08T05:51:00;5.50;99.90
42617;DHT22;28250;52.320;0.360;2024-03-08T05:53:27;5.50;99.90
42617;DHT22;28250;52.320;0.360;2024-03-08T05:55:58;5.40;99.90
42617;DHT22;28250;52.320;0.360;2024-03-08T05:58:25;5.50;99.90
42617;DHT22;28250;52.320;0.360;2024-03-08T06:00:51;5.40;99.90
42617;DHT22;28250;52.320;0.360;2024-03-08T06:03:17;5.40;99.90
42617;DHT22;28250;52.320;0.360;2024-03-08T06:05:48;5.30;99.90
42617;DHT22;28250;52.320;0.360;2024-03-08T06:08:15;5.30;99.90
42617;DHT22;28250;52.320;0.360;2024-03-08T06:10:42;5.20;99.90
42617;DHT22;28250;52.320;0.360;2024-03-08T06:13:08;5.20;99.90
42617;DHT22;28250;52.320;0.360;2024-03-08T06:15:34;5.10;99.90
42617;DHT22;28250;52.320;0.360;2024-03-08T06:18:00;5.10;99.90
42617;DHT22;28250;52.320;0.360;2024-03-08T06:20:27;5.20;99.90
42617;DHT22;28250;52.320;0.360;2024-03-08T06:22:53;5.30;99.90
42617;DHT22;28250;52.320;0.360;2024-03-08T06:25:19;5.30;99.90
42617;DHT22;28250;52.320;0.360;2024-03-08T06:27:46;5.40;99.90
42617;DHT22;28250;52.320;0.360;2024-03-08T06:30:13;5.40;99.90
42617;DHT22;28250;52.320;0.360;2024-03-08T06:32:41;5.30;99.90
42617;DHT22;28250;52.320;0.360;2024-03-08T06:35:08;5.30;99.90
42617;DHT22;28250;52.320;0.360;2024-03-08T06:37:36;5.30;99.90
42617;DHT22;28250;52.320;0.360;2024-03-08T06:40:02;5.40;99.90
42617;DHT22;28250;52.320;0.360;2024-03-08T06:42:29;5.40;99.90
42617;DHT22;28250;52.320;0.360;2024-03-08T06:44:59;5.50;99.90
42617;DHT22;28250;52.320;0.360;2024-03-08T06:47:31;5.50;99.90
42617;DHT22;28250;52.320;0.360;2024-03-08T06:50:00;5.40;99.90
42617;DHT22;28250;52.320;0.360;2024-03-08T06:52:30;5.40;99.90
42617;DHT22;28250;52.320;0.360;2024-03-08T06:54:56;5.20;99.90
42617;DHT22;28250;52.320;0.360;2024-03-08T06:57:23;5.20;99.90
42617;DHT22;28250;52.320;0.360;2024-03-08T06:59:50;5.20;99.90
42617;DHT22;28250;52.320;0.360;2024-03-08T07:02:18;5.10;99.90
42617;DHT22;28250;52.320;0.360;2024-03-08T07:04:44;5.10;99.90
42617;DHT22;28250;52.320;0.360;2024-03-08T07:07:10;5.00;99.90
42617;DHT22;28250;52.320;0.360;2024-03-08T07:09:37;5.00;99.90
42617;DHT22;28250;52.320;0.360;2024-03-08T07:12:03;5.00;99.90
42617;DHT22;28250;52.320;0.360;2024-03-08T07:14:30;5.00;99.90
42617;DHT22;28250;52.320;0.360;2024-03-08T07:16:57;5.00;99.90
42617;DHT22;28250;52.320;0.360;2024-03-08T07:19:23;5.00;99.90
42617;DHT22;28250;52.320;0.360;2024-03-08T07:21:49;5.10;99.90
42617;DHT22;28250;52.320;0.360;2024-03-08T07:24:15;5.10;99.90
42617;DHT22;28250;52.320;0.360;2024-03-08T07:27:01;5.20;99.90
42617;DHT22;28250;52.320;0.360;2024-03-08T07:29:27;5.20;99.90
42617;DHT22;28250;52.320;0.360;2024-03-08T07:31:53;5.20;99.90
42617;DHT22;28250;52.320;0.360;2024-03-08T07:34:48;5.20;99.90
42617;DHT22;28250;52.320;0.360;2024-03-08T07:37:17;5.30;99.90
42617;DHT22;28250;52.320;0.360;2024-03-08T07:39:44;5.30;99.90
42617;DHT22;28250;52.320;0.360;2024-03-08T07:42:11;5.30;99.90
42617;DHT22;28250;52.320;0.360;2024-03-08T07:44:38;5.30;99.90
42617;DHT22;28250;52.320;0.360;2024-03-08T07:47:04;5.40;99.90
42617;DHT22;28250;52.320;0.360;2024-03-08T07:49:33;5.40;99.90
42617;DHT22;28250;52.320;0.360;2024-03-08T07:52:00;5.50;99.90
42617;DHT22;28250;52.320;0.360;2024-03-08T07:54:26;5.60;99.90
42617;DHT22;28250;52.320;0.360;2024-03-08T07:56:52;5.60;99.90
42617;DHT22;28250;52.320;0.360;2024-03-08T07:59:19;5.80;99.90
42617;DHT22;28250;52.320;0.360;2024-03-08T08:01:46;5.80;99.90
42617;DHT22;28250;52.320;0.360;2024-03-08T08:04:13;5.90;99.90
42617;DHT22;28250;52.320;0.360;2024-03-08T08:06:43;5.90;99.90
42617;DHT22;28250;52.320;0.360;2024-03-08T08:09:09;6.00;99.90
42617;DHT22;28250;52.320;0.360;2024-03-08T08:11:41;6.10;99.90
42617;DHT22;28250;52.320;0.360;2024-03-08T08:14:09;6.10;99.90
42617;DHT22;28250;52.320;0.360;2024-03-08T08:16:36;6.30;99.90
42617;DHT22;28250;52.320;0.360;2024-03-08T08:19:04;6.30;99.90
42617;DHT22;28250;52.320;0.360;2024-03-08T08:21:34;6.30;99.90
42617;DHT22;28250;52.320;0.360;2024-03-08T08:24:04;6.30;99.90
42617;DHT22;28250;52.320;0.360;2024-03-08T08:26:30;6.40;99.90
42617;DHT22;28250;52.320;0.360;2024-03-08T08:28:56;6.50;99.90
42617;DHT22;28250;52.320;0.360;2024-03-08T08:31:22;6.60;99.90
42617;DHT22;28250;52.320;0.360;2024-03-08T08:33:49;6.60;99.90
42617;DHT22;28250;52.320;0.360;2024-03-08T08:36:15;6.70;99.90
42617;DHT22;28250;52.320;0.360;2024-03-08T08:38:41;6.70;99.90
42617;DHT22;28250;52.320;0.360;2024-03-08T08:41:09;6.70;99.90
42617;DHT22;28250;52.320;0.360;2024-03-08T08:43:37;6.60;99.90
42617;DHT22;28250;52.320;0.360;2024-03-08T08:46:05;6.80;99.90
42617;DHT22;28250;52.320;0.360;2024-03-08T08:48:31;6.90;99.90
42617;DHT22;28250;52.320;0.360;2024-03-08T08:50:57;6.90;99.90
42617;DHT22;28250;52.320;0.360;2024-03-08T08:53:23;6.90;99.90
42617;DHT22;28250;52.320;0.360;2024-03-08T08:55:49;6.90;99.90
42617;DHT22;28250;52.320;0.360;2024-03-08T08:58:16;7.00;99.90
42617;DHT22;28250;52.320;0.360;2024-03-08T09:00:42;7.00;99.90
42617;DHT22;28250;52.320;0.360;2024-03-08T09:03:09;7.10;99.90
42617;DHT22;28250;52.320;0.360;2024-03-08T09:05:36;7.10;99.90
42617;DHT22;28250;52.320;0.360;2024-03-08T09:08:03;7.20;99.90
42617;DHT22;28250;52.320;0.360;2024-03-08T09:10:29;7.20;99.90
42617;DHT22;28250;52.320;0.360;2024-03-08T09:12:55;7.20;99.90
42617;DHT22;28250;52.320;0.360;2024-03-08T09:15:22;7.30;99.90
42617;DHT22;28250;52.320;0.360;2024-03-08T09:17:48;7.30;99.90
42617;DHT22;28250;52.320;0.360;2024-03-08T09:20:14;7.40;99.90
42617;DHT22;28250;52.320;0.360;2024-03-08T09:22:43;7.50;99.90
42617;DHT22;28250;52.320;0.360;2024-03-08T09:25:10;7.50;99.90
42617;DHT22;28250;52.320;0.360;2024-03-08T09:27:36;7.60;99.90
42617;DHT22;28250;52.320;0.360;2024-03-08T09:30:03;7.70;99.90
42617;DHT22;28250;52.320;0.360;2024-03-08T09:32:31;8.00;99.90
42617;DHT22;28250;52.320;0.360;2024-03-08T09:34:57;8.00;99.90
42617;DHT22;28250;52.320;0.360;2024-03-08T09:37:23;8.10;99.90
42617;DHT22;28250;52.320;0.360;2024-03-08T09:39:50;8.30;99.90
42617;DHT22;28250;52.320;0.360;2024-03-08T09:42:16;8.20;99.90
42617;DHT22;28250;52.320;0.360;2024-03-08T09:44:45;8.20;99.90
42617;DHT22;28250;52.320;0.360;2024-03-08T09:47:13;8.10;99.90
42617;DHT22;28250;52.320;0.360;2024-03-08T09:49:41;8.00;99.90
42617;DHT22;28250;52.320;0.360;2024-03-08T09:52:08;8.10;99.90
42617;DHT22;28250;52.320;0.360;2024-03-08T09:54:36;8.20;99.90
42617;DHT22;28250;52.320;0.360;2024-03-08T09:57:04;8.40;99.90
42617;DHT22;28250;52.320;0.360;2024-03-08T09:59:30;8.30;99.90
42617;DHT22;28250;52.320;0.360;2024-03-08T10:02:03;8.10;99.90
42617;DHT22;28250;52.320;0.360;2024-03-08T10:04:30;8.20;99.90
42617;DHT22;28250;52.320;0.360;2024-03-08T10:06:58;8.20;99.90
42617;DHT22;28250;52.320;0.360;2024-03-08T10:09:25;8.40;99.90
42617;DHT22;28250;52.320;0.360;2024-03-08T10:11:56;8.60;99.90
42617;DHT22;28250;52.320;0.360;2024-03-08T10:14:26;8.80;99.90
42617;DHT22;28250;52.320;0.360;2024-03-08T10:16:52;8.70;99.90
42617;DHT22;28250;52.320;0.360;2024-03-08T10:19:20;8.90;99.90
42617;DHT22;28250;52.320;0.360;2024-03-08T10:21:50;8.90;99.90
42617;DHT22;28250;52.320;0.360;2024-03-08T10:24:19;9.00;99.90
42617;DHT22;28250;52.320;0.360;2024-03-08T10:26:45;9.30;99.90
42617;DHT22;28250;52.320;0.360;2024-03-08T10:29:13;9.60;99.90
42617;DHT22;28250;52.320;0.360;2024-03-08T10:31:43;9.20;99.90
42617;DHT22;28250;52.320;0.360;2024-03-08T10:34:13;9.30;99.90
42617;DHT22;28250;52.320;0.360;2024-03-08T10:36:40;9.20;99.90
42617;DHT22;28250;52.320;0.360;2024-03-08T10:39:11;8.70;99.90
42617;DHT22;28250;52.320;0.360;2024-03-08T10:41:58;8.70;99.90
42617;DHT22;28250;52.320;0.360;2024-03-08T10:44:43;8.70;99.90
42617;DHT22;28250;52.320;0.360;2024-03-08T10:47:18;8.70;99.90
42617;DHT22;28250;52.320;0.360;2024-03-08T10:49:54;8.80;99.90
42617;DHT22;28250;52.320;0.360;2024-03-08T10:52:22;9.30;99.90
42617;DHT22;28250;52.320;0.360;2024-03-08T10:54:49;9.20;99.90
42617;DHT22;28250;52.320;0.360;2024-03-08T10:57:18;9.30;99.90
42617;DHT22;28250;52.320;0.360;2024-03-08T10:59:47;9.00;99.90
42617;DHT22;28250;52.320;0.360;2024-03-08T11:02:17;9.10;99.90
42617;DHT22;28250;52.320;0.360;2024-03-08T11:04:49;9.70;99.90
42617;DHT22;28250;52.320;0.360;2024-03-08T11:07:16;10.10;99.90
42617;DHT22;28250;52.320;0.360;2024-03-08T11:09:44;10.50;99.90
42617;DHT22;28250;52.320;0.360;2024-03-08T11:12:27;10.80;99.90
42617;DHT22;28250;52.320;0.360;2024-03-08T11:15:00;11.00;99.90
42617;DHT22;28250;52.320;0.360;2024-03-08T11:19:56;10.60;99.90
42617;DHT22;28250;52.320;0.360;2024-03-08T11:22:29;10.80;99.90
42617;DHT22;28250;52.320;0.360;2024-03-08T11:24:59;11.20;99.90
42617;DHT22;28250;52.320;0.360;2024-03-08T11:27:29;11.60;99.90
42617;DHT22;28250;52.320;0.360;2024-03-08T11:30:06;11.90;99.90
42617;DHT22;28250;52.320;0.360;2024-03-08T11:32:37;12.20;99.90
42617;DHT22;28250;52.320;0.360;2024-03-08T11:35:05;12.00;99.90
42617;DHT22;28250;52.320;0.360;2024-03-08T11:37:34;12.10;99.90
42617;DHT22;28250;52.320;0.360;2024-03-08T11:40:02;12.10;99.90
42617;DHT22;28250;52.320;0.360;2024-03-08T11:42:30;11.80;99.90
42617;DHT22;28250;52.320;0.360;2024-03-08T11:44:57;11.50;99.90
42617;DHT22;28250;52.320;0.360;2024-03-08T11:47:23;11.60;99.90
42617;DHT22;28250;52.320;0.360;2024-03-08T11:49:52;11.60;99.90
42617;DHT22;28250;52.320;0.360;2024-03-08T11:52:19;11.90;99.90
42617;DHT22;28250;52.320;0.360;2024-03-08T11:54:52;11.60;99.90
42617;DHT22;28250;52.320;0.360;2024-03-08T11:57:22;11.60;99.90
42617;DHT22;28250;52.320;0.360;2024-03-08T11:59:50;11.60;99.90
42617;DHT22;28250;52.320;0.360;2024-03-08T12:02:17;11.80;99.90
42617;DHT22;28250;52.320;0.360;2024-03-08T12:04:45;12.40;99.90
42617;DHT22;28250;52.320;0.360;2024-03-08T12:07:15;12.40;99.90
42617;DHT22;28250;52.320;0.360;2024-03-08T12:12:46;12.60;99.90
42617;DHT22;28250;52.320;0.360;2024-03-08T12:15:15;12.40;99.90
42617;DHT22;28250;52.320;0.360;2024-03-08T12:17:41;11.30;99.90
42617;DHT22;28250;52.320;0.360;2024-03-08T12:22:48;11.40;99.90
42617;DHT22;28250;52.320;0.360;2024-03-08T12:25:15;11.60;99.90
42617;DHT22;28250;52.320;0.360;2024-03-08T12:27:42;11.70;99.90
42617;DHT22;28250;52.320;0.360;2024-03-08T12:32:51;12.80;99.90
42617;DHT22;28250;52.320;0.360;2024-03-08T12:35:20;12.70;99.90
42617;DHT22;28250;52.320;0.360;2024-03-08T12:37:50;12.60;99.90
42617;DHT22;28250;52.320;0.360;2024-03-08T12:40:19;12.80;99.90
42617;DHT22;28250;52.320;0.360;2024-03-08T12:42:52;12.90;99.90
42617;DHT22;28250;52.320;0.360;2024-03-08T12:45:19;12.00;99.90
42617;DHT22;28250;52.320;0.360;2024-03-08T12:47:47;11.90;99.90
42617;DHT22;28250;52.320;0.360;2024-03-08T12:50:15;12.60;99.90
42617;DHT22;28250;52.320;0.360;2024-03-08T12:52:43;13.10;99.90
42617;DHT22;28250;52.320;0.360;2024-03-08T12:55:09;13.20;99.90
42617;DHT22;28250;52.320;0.360;2024-03-08T12:57:36;13.10;99.90
42617;DHT22;28250;52.320;0.360;2024-03-08T13:00:04;12.90;99.90
42617;DHT22;28250;52.320;0.360;2024-03-08T13:02:31;13.00;99.90
42617;DHT22;28250;52.320;0.360;2024-03-08T13:04:58;12.80;99.90
42617;DHT22;28250;52.320;0.360;2024-03-08T13:07:25;12.50;99.90
42617;DHT22;28250;52.320;0.360;2024-03-08T13:09:55;12.00;99.90
42617;DHT22;28250;52.320;0.360;2024-03-08T13:12:21;12.10;99.90
42617;DHT22;28250;52.320;0.360;2024-03-08T13:14:49;12.80;99.90
42617;DHT22;28250;52.320;0.360;2024-03-08T13:17:16;12.90;99.90
42617;DHT22;28250;52.320;0.360;2024-03-08T13:19:44;13.10;99.90
42617;DHT22;28250;52.320;0.360;2024-03-08T13:22:10;13.40;99.90
42617;DHT22;28250;52.320;0.360;2024-03-08T13:24:39;13.50;99.90
42617;DHT22;28250;52.320;0.360;2024-03-08T13:27:08;13.50;99.90
42617;DHT22;28250;52.320;0.360;2024-03-08T13:29:50;13.60;99.90
42617;DHT22;28250;52.320;0.360;2024-03-08T13:32:16;13.60;99.90
42617;DHT22;28250;52.320;0.360;2024-03-08T13:34:43;13.40;99.90
42617;DHT22;28250;52.320;0.360;2024-03-08T13:37:11;13.10;99.90
42617;DHT22;28250;52.320;0.360;2024-03-08T13:39:38;12.40;99.90
42617;DHT22;28250;52.320;0.360;2024-03-08T13:42:12;12.30;99.90
42617;DHT22;28250;52.320;0.360;2024-03-08T13:44:43;12.40;99.90
42617;DHT22;28250;52.320;0.360;2024-03-08T13:47:09;11.90;99.90
42617;DHT22;28250;52.320;0.360;2024-03-08T13:49:37;12.20;99.90
42617;DHT22;28250;52.320;0.360;2024-03-08T13:52:04;12.30;99.90
42617;DHT22;28250;52.320;0.360;2024-03-08T13:54:30;12.20;99.90
42617;DHT22;28250;52.320;0.360;2024-03-08T13:56:58;12.30;99.90
42617;DHT22;28250;52.320;0.360;2024-03-08T13:59:24;12.30;99.90
42617;DHT22;28250;52.320;0.360;2024-03-08T14:01:55;12.30;99.90
42617;DHT22;28250;52.320;0.360;2024-03-08T14:04:23;12.20;99.90
42617;DHT22;28250;52.320;0.360;2024-03-08T14:06:49;12.60;99.90
42617;DHT22;28250;52.320;0.360;2024-03-08T14:09:17;12.60;99.90
42617;DHT22;28250;52.320;0.360;2024-03-08T14:11:44;12.80;99.90
42617;DHT22;28250;52.320;0.360;2024-03-08T14:14:12;12.60;99.90
42617;DHT22;28250;52.320;0.360;2024-03-08T14:16:41;12.90;99.90
42617;DHT22;28250;52.320;0.360;2024-03-08T14:19:09;12.90;99.90
42617;DHT22;28250;52.320;0.360;2024-03-08T14:21:35;12.70;99.90
42617;DHT22;28250;52.320;0.360;2024-03-08T14:24:05;12.50;99.90
42617;DHT22;28250;52.320;0.360;2024-03-08T14:26:31;12.10;99.90
42617;DHT22;28250;52.320;0.360;2024-03-08T14:28:57;12.40;99.90
42617;DHT22;28250;52.320;0.360;2024-03-08T14:31:23;12.00;99.90
42617;DHT22;28250;52.320;0.360;2024-03-08T14:33:54;12.00;99.90
42617;DHT22;28250;52.320;0.360;2024-03-08T14:36:21;12.20;99.90
42617;DHT22;28250;52.320;0.360;2024-03-08T14:38:48;12.00;99.90
42617;DHT22;28250;52.320;0.360;2024-03-08T14:41:14;11.50;99.90
42617;DHT22;28250;52.320;0.360;2024-03-08T14:43:44;11.20;99.90
42617;DHT22;28250;52.320;0.360;2024-03-08T14:46:12;11.10;99.90
42617;DHT22;28250;52.320;0.360;2024-03-08T14:48:43;10.80;99.90
42617;DHT22;28250;52.320;0.360;2024-03-08T14:51:10;10.90;99.90
42617;DHT22;28250;52.320;0.360;2024-03-08T14:53:43;11.30;99.90
42617;DHT22;28250;52.320;0.360;2024-03-08T14:56:11;11.60;99.90
42617;DHT22;28250;52.320;0.360;2024-03-08T14:58:43;11.10;99.90
42617;DHT22;28250;52.320;0.360;2024-03-08T15:01:10;10.80;99.90
42617;DHT22;28250;52.320;0.360;2024-03-08T15:03:39;10.80;99.90
42617;DHT22;28250;52.320;0.360;2024-03-08T15:06:06;10.50;99.90
42617;DHT22;28250;52.320;0.360;2024-03-08T15:08:35;10.40;99.90
42617;DHT22;28250;52.320;0.360;2024-03-08T15:11:02;10.50;99.90
42617;DHT22;28250;52.320;0.360;2024-03-08T15:13:29;10.90;99.90
42617;DHT22;28250;52.320;0.360;2024-03-08T15:16:12;11.00;99.90
42617;DHT22;28250;52.320;0.360;2024-03-08T15:18:43;10.70;99.90
42617;DHT22;28250;52.320;0.360;2024-03-08T15:21:14;10.60;99.90
42617;DHT22;28250;52.320;0.360;2024-03-08T15:23:46;10.30;99.90
42617;DHT22;28250;52.320;0.360;2024-03-08T15:26:16;10.40;99.90
42617;DHT22;28250;52.320;0.360;2024-03-08T15:28:43;10.50;99.90
42617;DHT22;28250;52.320;0.360;2024-03-08T15:31:11;10.10;99.90
42617;DHT22;28250;52.320;0.360;2024-03-08T15:33:39;10.20;99.90
42617;DHT22;28250;52.320;0.360;2024-03-08T15:36:17;9.80;99.90
42617;DHT22;28250;52.320;0.360;2024-03-08T15:38:47;9.50;99.90
42617;DHT22;28250;52.320;0.360;2024-03-08T15:41:13;9.50;99.90
42617;DHT22;28250;52.320;0.360;2024-03-08T15:43:40;9.40;99.90
42617;DHT22;28250;52.320;0.360;2024-03-08T15:46:07;9.30;99.90
42617;DHT22;28250;52.320;0.360;2024-03-08T15:48:34;9.40;99.90
42617;DHT22;28250;52.320;0.360;2024-03-08T15:51:03;9.40;99.90
42617;DHT22;28250;52.320;0.360;2024-03-08T15:53:33;9.30;99.90
42617;DHT22;28250;52.320;0.360;2024-03-08T15:56:01;9.30;99.90